Briefing drone pour Beaurieux

Rechercher une autre localisation

Conditions de vol :


Nous sommes le : Mercredi 07 décembre 2022
Il est 19:52 UTC (20:52 LT)

Lever de soleil : 07:00 UTC (08:00 LT)
Coucher de soleil : 16:12 UTC (17:12 LT)

Météo

L'essentiel des conditions de vol

VIGILANCE MÉTÉO FRANCE - Aisne (02)
Pas de vigilances particulieres
METAR de LFQA
LFQA 071930Z AUTO 25004KT 8000 FEW015 OVC032 04/03 Q1016

Date d'émission: 07/12/2022
Heure d'émission: 19:30 UTC
Vent: 250° pour 4 KT (7 km/h)
Visibilité horizontale: 8000 m
Plafond :
- Peu de nuages à 1500ft (457m)
- Couvert à 3200ft (975m)
Température: 4 °C
Point de rosée: 3 °C
Humidité: 93%
Pression (QNH): 1016 hPa
Prévision 24h pour Reims (17 km)
Vent : 306° pour 2 KT (7 km/h)
Temperature Maxi: 4 °C
Temperature Min: 4 °C
Humidité : 80%
Condition : Légères chutes de neige



Warning: count(): Parameter must be an array or an object that implements Countable in /homepages/6/d509196549/htdocs/droneoxygene/briefing.php on line 743
WEBCAM POUR BEAURIEUX

Réglementation

Voler en sécurité

CARTES AERONAUTIQUE 1/500.000
CARTE AZBA (Reseau basse altitude)
CARTES VAC (LFQA)
SUP AIP




Chargement des AIP...
NOTAM (BEAURIEUX + Terrain à proximité / FIR )




Chargement des NOTAMS...
CONTACT PREFECTURE 02


Avertissement : Les données mises à disposition sont indicatives. Oxygène Drone ne pourra être tenu responsable de dégâts causés aux biens et aux personnes.